Louisville International Standiford Field
KSDF : rendu visible

Aérodrome :











RETROUVEZ-NOUS SUR...

 
LOGIN :

S'inscrire | Disclaimer

   EN    FR    IT 

 









Légende :    VFR   VFR Marginal   IFR   IFR Intensif   IFR Très Intensif
Visi : 
Plafond : 
>= 8 km
>= 3000ft
5 à 8 km
1000 à 3000 ft
1500m à 5 km
500 à 1000 ft
800 à 1500m
200 à 500 ft
< 800m
< 200 ft
Symboles :   Orages  Brouillard  Fortes neiges  Fortes précipitations  Vent > 20 kt






- Altitude de l'aérodrome : 501 ft
- Code IATA : SDF


KSDF - Louisville International Standiford Field

DERNIER METAR :
  • 162356Z 05004KT 10SM BKN250 06/M03 A3021 RMK AO2 SLP235 T00611033 10100 20061 56002

METARs EXPIRÉS :
  • 162256Z 02006KT 10SM BKN250 07/M03 A3021 RMK AO2 SLP234 T00721033
  • 162156Z 36008KT 10SM FEW250 08/M03 A3021 RMK AO2 SLP233 T00831028

TAF KSDF
Valide du 17 à 00h jusqu'au 18 à 06h UTC


162321Z 1700/1806 04005KT P6SM SCT250
TEMPO 1711/1714 5SM BR
FM171400 VRB03KT P6SM FEW250
FM171800 VRB03KT P6SM BKN200



MET'MAP, la Météo Aéronautique d'un coup d'oeil ! - Copyright ORBIFLY Décembre 2007 - Disclaimer

ORBIFLY MET'MAP TEAM :

Programmation & Développement : Alexandra Zaïnal
Conception & Développement : Baudouin d'Aumeries
Co-Programmation & Développement : Marc-Olivier Méhu
Soutien technique & logistique : Manuel Goepfert

Contact : metmap@orbifly.com




SOURCES & CREDITS :

   NOAA       Earth
Advisory